Pittsford Mills, Vermont
Current Conditions -  °F | °C
As of 9:15 AM on Thursday 23 Oct 2014 (Local Time) from KRUT Reporting Station
Overcast Overcast  
Wind Chill: 37°   Ceiling: 1800
Heat Index: 43°   Visibility: 9mi
Dew Point: 39°   Wind: 10mph
Humidity: 87%   Direction: 330°NNW
Pressure: 29.86"   Gusts: 18mph
Location:  43.7419°N, 73.0064°W
Report Text: KRUT 231315Z 33009G16KT 9SM SCT009 OVC018 06/04 A2986 RMK AO1
Loading
Personal Weather Stations






























Interactive Weather Map
Tropical Storm Tracking
New forecast layout! Learn more

10-Day Weather Forecast

Advertisements
Track Severe Weather on mobile